Time;durP1;ratioP1;P1;durP2;ratioP2;P2;SDS_P1;SDS_P2;PMS_P1;PMS_P2;Temp;Humidity;BMP_temperature;BMP_pressure;BME280_temperature;BME280_humidity;BME280_pressure;Samples;Min_cycle;Max_cycle;Signal;HPM_P1;HPM_P2
2023/05/13 00:01:42;;;;;;;4.57;3.63;;;;;;;;;;5031672;28;20053;-60
2023/05/13 00:04:08;;;;;;;4.38;3.55;;;;;;;;;;5034907;28;20036;-60
2023/05/13 00:06:35;;;;;;;4.20;3.40;;;;;;;;;;5040416;28;20048;-60
2023/05/13 00:09:01;;;;;;;4.25;3.42;;;;;;;;;;5032920;28;20068;-60
2023/05/13 00:11:28;;;;;;;6.25;3.60;;;;;;;;;;5034086;28;20394;-60
2023/05/13 00:13:54;;;;;;;4.90;3.97;;;;;;;;;;5040596;28;20057;-60
2023/05/13 00:16:22;;;;;;;4.32;3.70;;;;;;;;;;5036017;28;20041;-60
2023/05/13 00:18:50;;;;;;;5.40;3.97;;;;;;;;;;5039033;28;20048;-60
2023/05/13 00:21:16;;;;;;;4.03;3.63;;;;;;;;;;5038798;28;20406;-60
2023/05/13 00:23:42;;;;;;;7.07;3.75;;;;;;;;;;5040466;28;20057;-60
2023/05/13 00:26:08;;;;;;;4.78;4.20;;;;;;;;;;5038651;28;20049;-59
2023/05/13 00:28:34;;;;;;;5.32;3.70;;;;;;;;;;5032036;28;20044;-60
2023/05/13 00:31:01;;;;;;;4.75;3.85;;;;;;;;;;5034798;28;20044;-61
2023/05/13 00:33:27;;;;;;;4.13;3.72;;;;;;;;;;5039285;28;20414;-60
2023/05/13 00:35:53;;;;;;;4.38;3.83;;;;;;;;;;5034764;28;20029;-60
2023/05/13 00:38:19;;;;;;;4.10;3.28;;;;;;;;;;5041991;28;20040;-60
2023/05/13 00:40:46;;;;;;;4.00;3.60;;;;;;;;;;5036788;28;20057;-59
2023/05/13 00:43:12;;;;;;;4.32;3.70;;;;;;;;;;5031889;28;20033;-59
2023/05/13 00:45:38;;;;;;;7.32;3.67;;;;;;;;;;5037991;28;20051;-59
2023/05/13 00:48:05;;;;;;;6.15;4.32;;;;;;;;;;5041376;28;20498;-60
2023/05/13 00:50:33;;;;;;;7.50;4.00;;;;;;;;;;5036816;28;20036;-60
2023/05/13 00:53:00;;;;;;;5.80;4.43;;;;;;;;;;5033963;28;20060;-60
2023/05/13 00:55:26;;;;;;;7.32;4.25;;;;;;;;;;5030652;28;20515;-60
2023/05/13 00:57:53;;;;;;;6.60;5.05;;;;;;;;;;5015910;28;20049;-60
2023/05/13 01:00:19;;;;;;;6.28;4.82;;;;;;;;;;5033877;28;20037;-59
2023/05/13 01:03:17;;;;;;;6.90;4.50;;;;;;;;;;5041470;28;20024;-60
2023/05/13 01:05:55;;;;;;;8.00;4.40;;;;;;;;;;5032206;28;20041;-60
2023/05/13 01:08:57;;;;;;;5.32;4.50;;;;;;;;;;5034938;28;20037;-60
2023/05/13 01:11:33;;;;;;;5.65;4.68;;;;;;;;;;5035025;28;20052;-60
2023/05/13 01:14:11;;;;;;;7.45;4.70;;;;;;;;;;5036855;28;20033;-60
2023/05/13 01:16:57;;;;;;;7.72;5.07;;;;;;;;;;5036761;28;20037;-60
2023/05/13 01:19:43;;;;;;;5.20;4.65;;;;;;;;;;5030751;28;20034;-60
2023/05/13 01:22:09;;;;;;;6.13;4.22;;;;;;;;;;5037865;28;20193;-60
2023/05/13 01:24:36;;;;;;;5.38;4.25;;;;;;;;;;5042660;28;20048;-60
2023/05/13 01:27:03;;;;;;;5.30;4.40;;;;;;;;;;5039469;28;20045;-60
2023/05/13 01:29:30;;;;;;;5.90;4.35;;;;;;;;;;5037132;28;20523;-60
2023/05/13 01:31:57;;;;;;;5.40;4.28;;;;;;;;;;5039029;28;20045;-60
2023/05/13 01:34:25;;;;;;;5.80;4.40;;;;;;;;;;5039658;28;20551;-59
2023/05/13 01:36:51;;;;;;;6.38;4.57;;;;;;;;;;5036424;28;20040;-59
2023/05/13 01:39:19;;;;;;;5.63;4.40;;;;;;;;;;5041626;28;20052;-59
2023/05/13 01:41:47;;;;;;;6.80;4.88;;;;;;;;;;5041479;28;20049;-59
2023/05/13 01:44:14;;;;;;;5.82;4.57;;;;;;;;;;5037568;28;20040;-59
2023/05/13 01:46:42;;;;;;;5.63;4.60;;;;;;;;;;5037580;28;20036;-59
2023/05/13 01:49:09;;;;;;;5.38;4.20;;;;;;;;;;5035438;28;20039;-59
2023/05/13 01:51:36;;;;;;;6.70;4.65;;;;;;;;;;5041526;28;20041;-59
2023/05/13 01:54:03;;;;;;;6.10;4.45;;;;;;;;;;5017188;28;20044;-58
2023/05/13 01:56:30;;;;;;;5.45;4.05;;;;;;;;;;5042863;28;20037;-59
2023/05/13 01:58:56;;;;;;;4.90;4.40;;;;;;;;;;5036858;28;20044;-59
2023/05/13 02:01:22;;;;;;;6.13;4.70;;;;;;;;;;5042460;28;20038;-59
2023/05/13 02:03:49;;;;;;;5.93;4.35;;;;;;;;;;5039266;28;20049;-59
2023/05/13 02:06:15;;;;;;;5.88;4.50;;;;;;;;;;5039987;28;20060;-59
2023/05/13 02:08:41;;;;;;;5.78;4.70;;;;;;;;;;5037070;28;20033;-59
2023/05/13 02:11:08;;;;;;;4.78;3.90;;;;;;;;;;5036195;28;20029;-60
2023/05/13 02:13:34;;;;;;;5.53;4.20;;;;;;;;;;5036122;28;20048;-60
2023/05/13 02:16:00;;;;;;;6.40;4.53;;;;;;;;;;5038077;28;20064;-60
2023/05/13 02:18:26;;;;;;;6.30;4.75;;;;;;;;;;5043570;28;20046;-60
2023/05/13 02:20:52;;;;;;;6.75;4.55;;;;;;;;;;5038876;28;20041;-60
2023/05/13 02:23:18;;;;;;;5.65;4.40;;;;;;;;;;5033733;28;20049;-60
2023/05/13 02:25:44;;;;;;;7.03;4.70;;;;;;;;;;5039562;28;20051;-60
2023/05/13 02:28:11;;;;;;;7.43;5.53;;;;;;;;;;5039305;28;20040;-60
2023/05/13 02:30:37;;;;;;;8.00;5.75;;;;;;;;;;5042308;28;20052;-60
2023/05/13 02:33:03;;;;;;;8.73;5.72;;;;;;;;;;5040927;28;20044;-60
2023/05/13 02:35:29;;;;;;;8.32;6.30;;;;;;;;;;5038631;28;20104;-60
2023/05/13 02:37:56;;;;;;;10.63;6.95;;;;;;;;;;5042994;28;20052;-60
2023/05/13 02:40:23;;;;;;;11.63;6.60;;;;;;;;;;5039255;28;20044;-59
2023/05/13 02:42:50;;;;;;;11.93;7.05;;;;;;;;;;5037641;28;20044;-59
2023/05/13 02:45:21;;;;;;;12.75;6.07;;;;;;;;;;5037569;28;20033;-59
2023/05/13 02:47:52;;;;;;;10.55;6.68;;;;;;;;;;5037971;28;20033;-60
2023/05/13 02:50:18;;;;;;;9.73;6.82;;;;;;;;;;5037517;28;20052;-59
2023/05/13 02:52:44;;;;;;;9.13;7.07;;;;;;;;;;5035078;28;20450;-59
2023/05/13 02:55:10;;;;;;;8.02;6.47;;;;;;;;;;5037058;28;20056;-60
2023/05/13 02:57:37;;;;;;;10.07;6.90;;;;;;;;;;5033776;28;20045;-60
2023/05/13 03:00:04;;;;;;;9.50;7.25;;;;;;;;;;5039245;28;20025;-60
2023/05/13 03:02:31;;;;;;;9.32;6.40;;;;;;;;;;5037916;28;20037;-60
2023/05/13 03:04:57;;;;;;;10.75;6.15;;;;;;;;;;5038747;28;20048;-60
2023/05/13 03:07:24;;;;;;;9.70;7.00;;;;;;;;;;5038697;28;20026;-60
2023/05/13 03:09:50;;;;;;;11.55;6.80;;;;;;;;;;5031443;28;20042;-59
2023/05/13 03:12:16;;;;;;;10.48;6.55;;;;;;;;;;5036285;28;20037;-59
2023/05/13 03:14:43;;;;;;;8.05;6.50;;;;;;;;;;5031916;28;20043;-59
2023/05/13 03:17:10;;;;;;;9.82;6.25;;;;;;;;;;5037760;28;20045;-59
2023/05/13 03:19:37;;;;;;;8.23;6.45;;;;;;;;;;5034029;28;20041;-59
2023/05/13 03:22:04;;;;;;;12.57;6.63;;;;;;;;;;5020627;28;20036;-59
2023/05/13 03:24:31;;;;;;;8.82;7.00;;;;;;;;;;5037418;28;20033;-59
2023/05/13 03:26:58;;;;;;;7.88;6.35;;;;;;;;;;5041903;28;20545;-59
2023/05/13 03:29:24;;;;;;;9.35;6.90;;;;;;;;;;5032248;28;20033;-59
2023/05/13 03:31:53;;;;;;;9.93;6.93;;;;;;;;;;5038986;28;20032;-59
2023/05/13 03:34:19;;;;;;;11.70;7.07;;;;;;;;;;5032304;28;20041;-59
2023/05/13 03:36:45;;;;;;;8.18;6.55;;;;;;;;;;5030582;28;20033;-59
2023/05/13 03:39:12;;;;;;;9.15;6.45;;;;;;;;;;5039811;28;20033;-59
2023/05/13 03:41:38;;;;;;;8.50;6.10;;;;;;;;;;5036317;28;20052;-59
2023/05/13 03:44:05;;;;;;;8.40;6.25;;;;;;;;;;5034671;28;20048;-59
2023/05/13 03:46:32;;;;;;;11.07;7.13;;;;;;;;;;5035996;28;20029;-59
2023/05/13 03:48:59;;;;;;;9.57;6.90;;;;;;;;;;5033271;28;20041;-59
2023/05/13 03:51:27;;;;;;;9.88;6.93;;;;;;;;;;5040214;28;20408;-59
2023/05/13 03:53:54;;;;;;;10.10;6.18;;;;;;;;;;5031646;28;20062;-59
2023/05/13 03:56:20;;;;;;;8.18;6.60;;;;;;;;;;5034882;28;20060;-59
2023/05/13 03:58:46;;;;;;;10.57;6.18;;;;;;;;;;5026506;28;20606;-59
2023/05/13 04:01:12;;;;;;;8.32;5.47;;;;;;;;;;5036750;28;20474;-59
2023/05/13 04:03:40;;;;;;;15.57;8.35;;;;;;;;;;5028753;28;20029;-59
2023/05/13 04:06:06;;;;;;;12.43;7.40;;;;;;;;;;5037049;28;20053;-59
2023/05/13 04:08:33;;;;;;;8.88;6.50;;;;;;;;;;5028761;28;20059;-59
2023/05/13 04:10:59;;;;;;;8.77;5.85;;;;;;;;;;5029775;28;20041;-59
2023/05/13 04:13:25;;;;;;;8.27;6.05;;;;;;;;;;5031101;28;20052;-60
2023/05/13 04:15:53;;;;;;;7.13;5.35;;;;;;;;;;5032295;28;20045;-60
2023/05/13 04:18:20;;;;;;;7.53;5.63;;;;;;;;;;5031472;28;20040;-60
2023/05/13 04:20:46;;;;;;;8.18;5.72;;;;;;;;;;5034346;28;20033;-60
2023/05/13 04:23:12;;;;;;;9.90;5.47;;;;;;;;;;5041189;28;20041;-59
2023/05/13 04:25:39;;;;;;;9.35;6.05;;;;;;;;;;5037649;28;20403;-59
2023/05/13 04:28:06;;;;;;;10.55;5.93;;;;;;;;;;5015705;28;20510;-59
2023/05/13 04:30:39;;;;;;;7.85;6.43;;;;;;;;;;5029933;28;20041;-59
2023/05/13 04:33:05;;;;;;;9.05;6.25;;;;;;;;;;5030853;28;20044;-59
2023/05/13 04:35:33;;;;;;;6.72;5.65;;;;;;;;;;5036743;28;20055;-60
2023/05/13 04:38:01;;;;;;;11.95;6.03;;;;;;;;;;5039272;28;20491;-59
2023/05/13 04:40:28;;;;;;;9.60;5.60;;;;;;;;;;5033637;28;20033;-59
2023/05/13 04:42:57;;;;;;;7.90;6.07;;;;;;;;;;5038528;28;20032;-59
2023/05/13 04:45:30;;;;;;;8.10;5.65;;;;;;;;;;5034793;28;20036;-59
2023/05/13 04:47:57;;;;;;;8.98;5.70;;;;;;;;;;5034166;28;20041;-60
2023/05/13 04:50:23;;;;;;;7.70;5.65;;;;;;;;;;5037361;28;20033;-60
2023/05/13 04:52:53;;;;;;;10.00;6.03;;;;;;;;;;5031341;28;20041;-59
2023/05/13 04:55:20;;;;;;;7.38;5.65;;;;;;;;;;5038970;28;20045;-59
2023/05/13 04:57:48;;;;;;;6.35;5.47;;;;;;;;;;5041834;28;20047;-59
2023/05/13 05:00:14;;;;;;;11.00;7.25;;;;;;;;;;5029673;28;20052;-60
2023/05/13 05:02:42;;;;;;;9.27;7.10;;;;;;;;;;5029556;28;20040;-60
2023/05/13 05:05:08;;;;;;;9.05;6.60;;;;;;;;;;5036965;28;20026;-59
2023/05/13 05:07:39;;;;;;;8.95;6.18;;;;;;;;;;5029072;28;20045;-61
2023/05/13 05:10:08;;;;;;;9.07;6.30;;;;;;;;;;5033576;28;20038;-61
2023/05/13 05:12:38;;;;;;;9.98;6.55;;;;;;;;;;5027339;28;20032;-61
2023/05/13 05:15:05;;;;;;;9.35;6.47;;;;;;;;;;5032701;28;20053;-61
2023/05/13 05:17:32;;;;;;;8.48;6.63;;;;;;;;;;5034667;28;20411;-61
2023/05/13 05:20:01;;;;;;;9.00;6.88;;;;;;;;;;5037650;28;20064;-61
2023/05/13 05:22:27;;;;;;;10.48;6.50;;;;;;;;;;5040256;28;20036;-61
2023/05/13 05:24:53;;;;;;;9.32;6.38;;;;;;;;;;5030958;28;20033;-61
2023/05/13 05:27:19;;;;;;;8.70;6.95;;;;;;;;;;5031653;28;20049;-61
2023/05/13 05:29:45;;;;;;;8.63;6.43;;;;;;;;;;5021493;28;20040;-61
2023/05/13 05:32:11;;;;;;;8.93;6.20;;;;;;;;;;5039236;28;20033;-61
2023/05/13 05:34:38;;;;;;;8.65;7.20;;;;;;;;;;5040870;28;20041;-61
2023/05/13 05:37:04;;;;;;;8.40;6.28;;;;;;;;;;5039995;28;20053;-61
2023/05/13 05:39:34;;;;;;;8.00;6.22;;;;;;;;;;5038109;28;20045;-61
2023/05/13 05:42:00;;;;;;;9.10;6.38;;;;;;;;;;5032106;28;20038;-61
2023/05/13 05:44:26;;;;;;;9.55;6.68;;;;;;;;;;5043642;28;20040;-61
2023/05/13 05:46:53;;;;;;;10.98;6.90;;;;;;;;;;5042497;28;20053;-61
2023/05/13 05:49:19;;;;;;;9.65;6.47;;;;;;;;;;5035714;28;20029;-60
2023/05/13 05:51:46;;;;;;;8.95;5.97;;;;;;;;;;5038916;28;20029;-60
2023/05/13 05:54:12;;;;;;;11.15;6.10;;;;;;;;;;5035443;28;20052;-60
2023/05/13 05:56:38;;;;;;;10.40;5.43;;;;;;;;;;5038832;28;20052;-61
2023/05/13 05:59:04;;;;;;;11.30;6.38;;;;;;;;;;5034003;28;20053;-60
2023/05/13 06:01:33;;;;;;;10.52;5.85;;;;;;;;;;5036005;28;20057;-61
2023/05/13 06:03:59;;;;;;;7.85;5.88;;;;;;;;;;5037266;28;20495;-61
2023/05/13 06:06:25;;;;;;;8.70;5.82;;;;;;;;;;5035774;28;20040;-60
2023/05/13 06:08:51;;;;;;;8.98;6.63;;;;;;;;;;5038200;28;20068;-60
2023/05/13 06:11:17;;;;;;;8.77;5.93;;;;;;;;;;5024464;28;20036;-60
2023/05/13 06:13:44;;;;;;;9.82;6.25;;;;;;;;;;5018816;28;20041;-60
2023/05/13 06:16:10;;;;;;;9.07;5.82;;;;;;;;;;5036243;28;20049;-60
2023/05/13 06:18:37;;;;;;;7.40;5.97;;;;;;;;;;5033333;28;20036;-61
2023/05/13 06:21:03;;;;;;;8.27;6.13;;;;;;;;;;5035841;28;20041;-60
2023/05/13 06:23:29;;;;;;;8.52;5.65;;;;;;;;;;5023522;28;20055;-60
2023/05/13 06:25:58;;;;;;;9.73;6.22;;;;;;;;;;5037923;28;20037;-60
2023/05/13 06:28:24;;;;;;;8.15;6.05;;;;;;;;;;5033496;28;20045;-61
2023/05/13 06:30:50;;;;;;;7.82;6.40;;;;;;;;;;5036580;28;20049;-60
2023/05/13 06:33:16;;;;;;;8.15;6.00;;;;;;;;;;5021068;28;20040;-60
2023/05/13 06:35:46;;;;;;;8.00;6.32;;;;;;;;;;5037967;28;20033;-61
2023/05/13 06:38:16;;;;;;;8.70;6.35;;;;;;;;;;5033119;28;20037;-60
2023/05/13 06:40:43;;;;;;;9.63;6.65;;;;;;;;;;5036931;28;20052;-60
2023/05/13 06:43:13;;;;;;;9.18;7.05;;;;;;;;;;5037595;28;20041;-60
2023/05/13 06:45:43;;;;;;;9.15;6.07;;;;;;;;;;5028748;28;20037;-61
2023/05/13 06:48:09;;;;;;;9.10;6.07;;;;;;;;;;5039893;28;20052;-60
2023/05/13 06:50:36;;;;;;;10.07;6.90;;;;;;;;;;5041599;28;20040;-61
2023/05/13 06:53:03;;;;;;;11.35;6.30;;;;;;;;;;5042189;28;20037;-61
2023/05/13 06:55:29;;;;;;;12.98;6.72;;;;;;;;;;5036314;28;20040;-61
2023/05/13 06:57:55;;;;;;;8.75;6.38;;;;;;;;;;5039259;28;20048;-61
2023/05/13 07:00:21;;;;;;;12.73;6.85;;;;;;;;;;5035379;28;20052;-61
2023/05/13 07:02:47;;;;;;;8.88;6.28;;;;;;;;;;5037460;28;20424;-60
2023/05/13 07:05:14;;;;;;;9.30;6.95;;;;;;;;;;5037424;28;20052;-61
2023/05/13 07:07:42;;;;;;;11.52;6.93;;;;;;;;;;5036075;28;20416;-61
2023/05/13 07:10:08;;;;;;;9.50;6.55;;;;;;;;;;5036530;28;20045;-61
2023/05/13 07:12:34;;;;;;;9.18;7.10;;;;;;;;;;5032765;28;20033;-60
2023/05/13 07:15:01;;;;;;;8.20;6.35;;;;;;;;;;5033331;28;20060;-63
2023/05/13 07:17:27;;;;;;;10.65;6.85;;;;;;;;;;5033590;28;20057;-64
2023/05/13 07:19:53;;;;;;;8.52;6.60;;;;;;;;;;5036168;28;20033;-63
2023/05/13 07:22:19;;;;;;;8.07;5.97;;;;;;;;;;5038764;28;20037;-65
2023/05/13 07:24:45;;;;;;;7.82;6.05;;;;;;;;;;5037963;28;20036;-64
2023/05/13 07:27:11;;;;;;;10.30;6.72;;;;;;;;;;5035475;28;20045;-64
2023/05/13 07:29:38;;;;;;;12.75;6.40;;;;;;;;;;5031785;28;20512;-64
2023/05/13 07:32:05;;;;;;;8.95;6.25;;;;;;;;;;5042303;28;20483;-63
2023/05/13 07:34:31;;;;;;;12.07;6.10;;;;;;;;;;5043092;28;20060;-63
2023/05/13 07:36:57;;;;;;;11.05;6.88;;;;;;;;;;5036980;28;20408;-64
2023/05/13 07:39:24;;;;;;;10.07;6.15;;;;;;;;;;5037159;28;20045;-63
2023/05/13 07:41:50;;;;;;;7.15;5.78;;;;;;;;;;5038765;28;20503;-62
2023/05/13 07:44:16;;;;;;;10.05;6.63;;;;;;;;;;5034471;28;20044;-59
2023/05/13 07:46:43;;;;;;;10.70;6.93;;;;;;;;;;5037003;28;20036;-60
2023/05/13 07:49:09;;;;;;;12.45;7.25;;;;;;;;;;5035734;28;20053;-60
2023/05/13 07:51:35;;;;;;;13.05;7.75;;;;;;;;;;5038775;28;20548;-63
2023/05/13 07:54:01;;;;;;;11.98;7.60;;;;;;;;;;5038898;28;20051;-61
2023/05/13 07:56:28;;;;;;;11.80;7.88;;;;;;;;;;5033345;28;20036;-60
2023/05/13 07:58:55;;;;;;;10.82;7.18;;;;;;;;;;5036835;28;20506;-61
2023/05/13 08:01:21;;;;;;;10.50;6.70;;;;;;;;;;5038659;28;20033;-60
2023/05/13 08:03:47;;;;;;;11.80;7.25;;;;;;;;;;5040945;28;20028;-60
2023/05/13 08:06:13;;;;;;;10.82;6.95;;;;;;;;;;5034670;28;20036;-61
2023/05/13 08:08:39;;;;;;;11.43;7.57;;;;;;;;;;5040468;28;20485;-61
2023/05/13 08:11:06;;;;;;;13.88;7.68;;;;;;;;;;5043016;28;20025;-61
2023/05/13 08:13:32;;;;;;;14.43;7.88;;;;;;;;;;5039095;28;20411;-61
2023/05/13 08:16:02;;;;;;;11.68;7.18;;;;;;;;;;5036141;28;20037;-60
2023/05/13 08:18:28;;;;;;;9.57;6.90;;;;;;;;;;5034814;28;20036;-61
2023/05/13 08:20:54;;;;;;;12.10;6.75;;;;;;;;;;5034457;28;20053;-61
2023/05/13 08:23:21;;;;;;;9.98;6.57;;;;;;;;;;5041258;28;20025;-61
2023/05/13 08:25:47;;;;;;;11.27;7.07;;;;;;;;;;5042039;28;20396;-61
2023/05/13 08:28:13;;;;;;;12.52;6.70;;;;;;;;;;5037214;28;20057;-61
2023/05/13 08:30:42;;;;;;;8.68;6.30;;;;;;;;;;5032349;28;20045;-61
2023/05/13 08:33:10;;;;;;;11.45;7.28;;;;;;;;;;5036252;28;20048;-61
2023/05/13 08:35:36;;;;;;;12.65;6.93;;;;;;;;;;5037871;28;20038;-61
2023/05/13 08:38:04;;;;;;;14.32;7.05;;;;;;;;;;5041199;28;20041;-60
2023/05/13 08:40:31;;;;;;;9.77;6.95;;;;;;;;;;5036381;28;20044;-61
2023/05/13 08:43:01;;;;;;;11.48;7.28;;;;;;;;;;5036447;28;20030;-61
2023/05/13 08:45:32;;;;;;;11.70;7.55;;;;;;;;;;5038120;28;20540;-61
2023/05/13 08:48:02;;;;;;;11.07;7.13;;;;;;;;;;5043519;28;20040;-61
2023/05/13 08:50:28;;;;;;;10.88;6.78;;;;;;;;;;5039735;28;20037;-61
2023/05/13 08:52:57;;;;;;;11.05;7.03;;;;;;;;;;5037411;28;20033;-61
2023/05/13 08:55:24;;;;;;;11.88;7.20;;;;;;;;;;5032872;28;20463;-61
2023/05/13 08:57:50;;;;;;;12.10;7.68;;;;;;;;;;5036484;28;20052;-61
2023/05/13 09:00:17;;;;;;;11.65;7.35;;;;;;;;;;5037524;28;20025;-61
2023/05/13 09:02:43;;;;;;;11.32;7.13;;;;;;;;;;5034704;28;20049;-61
2023/05/13 09:05:10;;;;;;;10.85;7.50;;;;;;;;;;5035928;28;20045;-61
2023/05/13 09:07:37;;;;;;;11.07;7.15;;;;;;;;;;5042759;28;20045;-61
2023/05/13 09:10:05;;;;;;;11.38;7.88;;;;;;;;;;5042425;28;20045;-63
2023/05/13 09:12:40;;;;;;;14.38;8.18;;;;;;;;;;5035755;28;20037;-60
2023/05/13 09:15:12;;;;;;;12.23;7.97;;;;;;;;;;5036480;28;20427;-61
2023/05/13 09:17:47;;;;;;;10.55;7.35;;;;;;;;;;5035423;28;20391;-61
2023/05/13 09:20:15;;;;;;;10.95;7.60;;;;;;;;;;5035209;28;20057;-64
2023/05/13 09:22:46;;;;;;;12.43;7.80;;;;;;;;;;5042624;28;20033;-63
2023/05/13 09:25:13;;;;;;;15.55;8.68;;;;;;;;;;5044619;28;20511;-61
2023/05/13 09:27:43;;;;;;;12.05;7.93;;;;;;;;;;5042616;28;20522;-61
2023/05/13 09:30:10;;;;;;;;;;;;;;;;;;5039164;28;20053;-61
2023/05/13 09:32:37;;;;;;;20.48;10.20;;;;;;;;;;5033541;28;20387;-61
2023/05/13 09:35:16;;;;;;;16.55;9.57;;;;;;;;;;5022197;28;20044;-61
2023/05/13 09:37:47;;;;;;;12.30;7.90;;;;;;;;;;5044638;28;20254;-61
2023/05/13 09:40:16;;;;;;;19.23;8.85;;;;;;;;;;5046425;28;20045;-61
2023/05/13 09:42:45;;;;;;;18.38;10.48;;;;;;;;;;5041646;28;20040;-61
2023/05/13 09:45:14;;;;;;;17.92;9.05;;;;;;;;;;5029113;28;20421;-61
2023/05/13 09:47:41;;;;;;;14.77;9.07;;;;;;;;;;5044081;28;20052;-60
2023/05/13 09:50:10;;;;;;;13.65;8.05;;;;;;;;;;5041734;28;20032;-61
2023/05/13 09:52:37;;;;;;;9.73;7.20;;;;;;;;;;5043011;28;20021;-61
2023/05/13 09:55:08;;;;;;;12.00;7.00;;;;;;;;;;5039398;28;22088;-61
2023/05/13 09:57:34;;;;;;;9.90;6.88;;;;;;;;;;5036723;28;20029;-61
2023/05/13 10:00:04;;;;;;;9.05;6.57;;;;;;;;;;5031113;28;20407;-61
2023/05/13 10:02:37;;;;;;;8.70;6.50;;;;;;;;;;5038205;28;20030;-61
2023/05/13 10:05:05;;;;;;;8.32;6.90;;;;;;;;;;5033635;28;20048;-62
2023/05/13 10:07:33;;;;;;;8.95;6.55;;;;;;;;;;5043269;28;20044;-61
2023/05/13 10:10:05;;;;;;;8.25;6.63;;;;;;;;;;5043217;28;20079;-61
2023/05/13 10:12:32;;;;;;;8.52;6.43;;;;;;;;;;5036822;28;20041;-61
2023/05/13 10:15:03;;;;;;;8.55;7.07;;;;;;;;;;5042471;28;20041;-61
2023/05/13 10:17:31;;;;;;;9.35;6.05;;;;;;;;;;5036015;28;20041;-61
2023/05/13 10:19:58;;;;;;;13.20;8.70;;;;;;;;;;5037094;28;20049;-62
2023/05/13 10:22:29;;;;;;;10.55;8.10;;;;;;;;;;5035192;28;20049;-62
2023/05/13 10:24:57;;;;;;;12.98;9.27;;;;;;;;;;5038377;28;20049;-62
2023/05/13 10:27:29;;;;;;;16.67;9.55;;;;;;;;;;5041734;28;20041;-62
2023/05/13 10:29:57;;;;;;;16.50;12.82;;;;;;;;;;5043418;28;20037;-62
2023/05/13 10:32:25;;;;;;;20.27;18.05;;;;;;;;;;5033732;28;20530;-62
2023/05/13 10:35:12;;;;;;;24.02;21.52;;;;;;;;;;5035021;28;20041;-62
2023/05/13 10:38:00;;;;;;;20.55;18.45;;;;;;;;;;5042741;28;20045;-62
2023/05/13 10:40:57;;;;;;;22.83;20.55;;;;;;;;;;5037751;28;20033;-60
2023/05/13 10:43:28;;;;;;;7.75;6.88;;;;;;;;;;5039965;28;20104;-60
2023/05/13 10:45:59;;;;;;;7.57;5.88;;;;;;;;;;5041890;28;20067;-59
2023/05/13 10:48:25;;;;;;;11.45;5.85;;;;;;;;;;5043117;28;20041;-61
2023/05/13 10:50:59;;;;;;;11.90;9.25;;;;;;;;;;5040042;28;20045;-60
2023/05/13 10:53:36;;;;;;;12.00;10.57;;;;;;;;;;5038678;28;20041;-60
2023/05/13 10:56:06;;;;;;;9.50;8.30;;;;;;;;;;5033988;28;20511;-62
2023/05/13 10:58:35;;;;;;;9.10;8.18;;;;;;;;;;5036386;28;20442;-61
2023/05/13 11:01:16;;;;;;;9.65;7.55;;;;;;;;;;5030895;28;20057;-59
2023/05/13 11:03:57;;;;;;;11.07;6.55;;;;;;;;;;5032206;28;20082;-60
2023/05/13 11:06:28;;;;;;;9.63;5.75;;;;;;;;;;5037353;28;20048;-60
2023/05/13 11:08:54;;;;;;;7.85;5.50;;;;;;;;;;5038642;28;20052;-60
2023/05/13 11:11:21;;;;;;;6.47;4.80;;;;;;;;;;5031720;28;20030;-60
2023/05/13 11:14:01;;;;;;;6.70;5.00;;;;;;;;;;5036674;28;20033;-61
2023/05/13 11:16:27;;;;;;;5.15;4.30;;;;;;;;;;5041255;28;20036;-60
2023/05/13 11:18:54;;;;;;;5.25;4.40;;;;;;;;;;5037366;28;20046;-61
2023/05/13 11:21:34;;;;;;;7.40;6.28;;;;;;;;;;5035702;28;20040;-60
2023/05/13 11:24:03;;;;;;;30.55;21.42;;;;;;;;;;5035545;28;20070;-61
2023/05/13 11:26:49;;;;;;;7.00;5.88;;;;;;;;;;5039876;28;20033;-61
2023/05/13 11:29:26;;;;;;;6.45;5.43;;;;;;;;;;5042174;28;20049;-61
2023/05/13 11:31:55;;;;;;;9.05;5.85;;;;;;;;;;5036999;28;20037;-61
2023/05/13 11:34:24;;;;;;;16.88;8.32;;;;;;;;;;5031496;28;20037;-61
2023/05/13 11:37:08;;;;;;;7.15;5.35;;;;;;;;;;5036676;28;20041;-61
2023/05/13 11:39:35;;;;;;;7.85;6.13;;;;;;;;;;5041951;28;20490;-61
2023/05/13 11:42:06;;;;;;;6.15;5.07;;;;;;;;;;5040746;28;20049;-61
2023/05/13 11:44:33;;;;;;;5.95;4.80;;;;;;;;;;5038611;28;20075;-61
2023/05/13 11:47:07;;;;;;;8.00;5.50;;;;;;;;;;5036149;28;20053;-61
2023/05/13 11:49:40;;;;;;;5.60;5.00;;;;;;;;;;5033742;28;20404;-60
2023/05/13 11:52:14;;;;;;;19.50;8.30;;;;;;;;;;5040080;28;20033;-61
2023/05/13 11:54:42;;;;;;;7.85;5.25;;;;;;;;;;5036747;28;20034;-61
2023/05/13 11:57:21;;;;;;;9.95;7.03;;;;;;;;;;5039152;28;20037;-60
2023/05/13 11:59:56;;;;;;;7.45;5.60;;;;;;;;;;5037670;28;20045;-61
2023/05/13 12:02:37;;;;;;;6.30;5.15;;;;;;;;;;5038091;28;20041;-62
2023/05/13 12:05:05;;;;;;;6.22;4.68;;;;;;;;;;5033999;28;20059;-62
2023/05/13 12:07:35;;;;;;;5.15;4.40;;;;;;;;;;5038663;28;20029;-61
2023/05/13 12:10:03;;;;;;;6.63;5.22;;;;;;;;;;5034119;28;20044;-61
2023/05/13 12:12:33;;;;;;;7.18;5.22;;;;;;;;;;5034161;28;20032;-61
2023/05/13 12:15:02;;;;;;;6.45;5.07;;;;;;;;;;5036013;28;20063;-61
2023/05/13 12:17:30;;;;;;;6.75;5.22;;;;;;;;;;5035010;28;20430;-62
2023/05/13 12:20:11;;;;;;;7.20;5.20;;;;;;;;;;5039240;28;20071;-62
2023/05/13 12:22:43;;;;;;;6.25;5.03;;;;;;;;;;5042377;28;20041;-61
2023/05/13 12:25:34;;;;;;;7.60;5.30;;;;;;;;;;5031835;28;20487;-61
2023/05/13 12:28:24;;;;;;;7.20;4.85;;;;;;;;;;5038380;28;20037;-61
2023/05/13 12:30:57;;;;;;;7.68;5.47;;;;;;;;;;5028986;28;20052;-61
2023/05/13 12:33:27;;;;;;;6.60;5.15;;;;;;;;;;5039608;28;20065;-61
2023/05/13 12:36:14;;;;;;;7.43;4.80;;;;;;;;;;5035675;28;20041;-61
2023/05/13 12:38:56;;;;;;;7.35;5.32;;;;;;;;;;5038989;28;20041;-62
2023/05/13 12:41:24;;;;;;;25.48;14.57;;;;;;;;;;5036488;28;20029;-61
2023/05/13 12:43:57;;;;;;;8.82;5.65;;;;;;;;;;5041853;28;20052;-61
2023/05/13 12:46:23;;;;;;;7.90;5.20;;;;;;;;;;5038455;28;20387;-64
2023/05/13 12:48:57;;;;;;;6.90;5.40;;;;;;;;;;5036732;28;20491;-60
2023/05/13 12:51:24;;;;;;;7.22;5.53;;;;;;;;;;5030522;28;20041;-61
2023/05/13 12:53:53;;;;;;;7.47;5.60;;;;;;;;;;5038331;28;20520;-61
2023/05/13 12:56:21;;;;;;;7.05;5.47;;;;;;;;;;5040494;28;20053;-61
2023/05/13 12:58:49;;;;;;;5.85;4.60;;;;;;;;;;5035215;28;20036;-61
2023/05/13 13:01:16;;;;;;;6.70;5.28;;;;;;;;;;5034859;28;20036;-61
2023/05/13 13:03:42;;;;;;;10.00;5.45;;;;;;;;;;5037962;28;20061;-60
2023/05/13 13:06:09;;;;;;;7.10;5.85;;;;;;;;;;5041062;28;20047;-61
2023/05/13 13:08:36;;;;;;;10.13;6.57;;;;;;;;;;5034292;28;20052;-61
2023/05/13 13:11:03;;;;;;;14.35;7.25;;;;;;;;;;5033229;28;20046;-61
2023/05/13 13:13:30;;;;;;;9.07;6.60;;;;;;;;;;5034740;28;20037;-61
2023/05/13 13:15:57;;;;;;;18.88;8.48;;;;;;;;;;5028639;28;20033;-61
2023/05/13 13:18:24;;;;;;;41.30;12.60;;;;;;;;;;5029197;28;20049;-61
2023/05/13 13:20:51;;;;;;;115.72;27.88;;;;;;;;;;5028982;28;20045;-61
2023/05/13 13:23:18;;;;;;;73.50;20.92;;;;;;;;;;5041597;28;20391;-62
2023/05/13 13:25:44;;;;;;;25.38;10.02;;;;;;;;;;5033030;28;20132;-61
2023/05/13 13:28:10;;;;;;;25.67;9.93;;;;;;;;;;5038965;28;20438;-60
2023/05/13 13:30:45;;;;;;;32.05;12.02;;;;;;;;;;5035752;28;20041;-61
2023/05/13 13:33:13;;;;;;;58.45;14.93;;;;;;;;;;5036838;28;20049;-60
2023/05/13 13:35:46;;;;;;;39.28;13.20;;;;;;;;;;5042684;28;20052;-60
2023/05/13 13:38:15;;;;;;;21.25;10.13;;;;;;;;;;5032705;28;20077;-60
2023/05/13 13:40:41;;;;;;;15.98;8.60;;;;;;;;;;5038995;28;20049;-60
2023/05/13 13:43:10;;;;;;;14.40;8.63;;;;;;;;;;5036390;28;20033;-61
2023/05/13 13:45:36;;;;;;;11.07;8.40;;;;;;;;;;5040450;28;20111;-61
2023/05/13 13:48:03;;;;;;;9.20;7.10;;;;;;;;;;5042099;28;20025;-60
2023/05/13 13:50:29;;;;;;;8.70;6.65;;;;;;;;;;5033397;28;20044;-61
2023/05/13 13:52:55;;;;;;;9.48;6.40;;;;;;;;;;5044423;28;20033;-61
2023/05/13 13:55:22;;;;;;;9.73;7.00;;;;;;;;;;5037988;28;20064;-60
2023/05/13 13:57:49;;;;;;;7.32;6.30;;;;;;;;;;5039677;28;20052;-61
2023/05/13 14:00:16;;;;;;;10.40;7.07;;;;;;;;;;5041045;28;20029;-61
2023/05/13 14:02:42;;;;;;;8.82;6.65;;;;;;;;;;5034405;28;20036;-61
2023/05/13 14:05:10;;;;;;;9.32;7.00;;;;;;;;;;5039776;28;20506;-61
2023/05/13 14:07:36;;;;;;;8.50;6.55;;;;;;;;;;5034078;28;20044;-61
2023/05/13 14:10:06;;;;;;;9.15;6.45;;;;;;;;;;5032679;28;20045;-61
2023/05/13 14:12:34;;;;;;;;;;;;;;;;;;5037547;28;20026;-61
2023/05/13 14:15:00;;;;;;;7.63;6.03;;;;;;;;;;5039778;28;19920;-62
2023/05/13 14:17:26;;;;;;;8.43;6.50;;;;;;;;;;5035148;28;20037;-61
2023/05/13 14:19:54;;;;;;;11.35;6.28;;;;;;;;;;5038453;28;20040;-61
2023/05/13 14:22:22;;;;;;;7.22;5.70;;;;;;;;;;5044774;28;20635;-61
2023/05/13 14:24:50;;;;;;;8.40;5.85;;;;;;;;;;5042568;28;20048;-61
2023/05/13 14:27:17;;;;;;;9.23;6.80;;;;;;;;;;5041116;28;20516;-61
2023/05/13 14:29:45;;;;;;;9.55;6.85;;;;;;;;;;5037268;28;20032;-61
2023/05/13 14:32:11;;;;;;;9.27;5.88;;;;;;;;;;5043692;28;20041;-61
2023/05/13 14:34:38;;;;;;;8.07;6.18;;;;;;;;;;5038278;28;20037;-61
2023/05/13 14:37:04;;;;;;;14.70;10.00;;;;;;;;;;5044057;28;20063;-61
2023/05/13 14:39:30;;;;;;;7.93;5.90;;;;;;;;;;5039395;28;20041;-61
2023/05/13 14:41:56;;;;;;;9.10;6.10;;;;;;;;;;5041785;28;20523;-61
2023/05/13 14:44:23;;;;;;;9.18;5.75;;;;;;;;;;5040106;28;20539;-62
2023/05/13 14:46:49;;;;;;;7.70;5.60;;;;;;;;;;5042991;28;20036;-61